Главная страница
METAR-TAF:

METAR-TAF

Аэропорты :

Indiana County Airport (Jimmy Stewart Field)

Индиана, Пенсильвания, США

широта: 40-38N, долгота: 079-06W, высота над уровнем моря: 429 м

Текущие метеонаблюдения

Эта сводка был подготовлена 19 минут назад, в 11:35 UTC
Штиль
Температура 11°C
Влажность 66%
Давление 1025 hPa
Видимость: 16.1 км
Отдельные облака на высоте 5500 фута
Рассеянная облачность на высоте 7000 фута
Сплошная облачность на высоте 8000 фута

METAR: KIDI 161135Z AUTO 00000KT 10SM SCT055 BKN070 OVC080 11/05 A3027 RMK A01

Время: 07:54 (11:54 UTC)


TAF: отсутствует

Метеонаблюдения и прогнозы для более 4000 аэропортов (сводки METAR и TAF).

Имеющиеся станции представлены на карте желтыми и красными точками.

Чтобы увидеть название станции, наведите на нее мышь.

Затем щелкните, чтобы увидеть метеонаблюдения и метеопрогнозы.

Управление картой: чтобы увеличить масштаб, щелкните зеленые кнопки с черным крестиком; чтобы уменьшить масштаб, щелкните зеленую кнопку с тире; для просмотра соседних карт щелкайте зеленые стрелки.


METAR-TAF: